ADDS METAR Data INFO
IDs: Format: Raw Decoded Include TAF

Data at: 1554 UTC 12 Dec 2017

KSAN 121551Z 34003KT 10SM FEW007 13/M06 A3019 RMK AO2 SLP223 FU FEW007 T01331056
KSAN 121536Z 00000KT 10SM FEW007 13/M06 A3019 RMK AO2 FU FEW007 T01331061
KSAN 121451Z 00000KT 10SM CLR 11/M07 A3019 RMK AO2 SLP221 T01111072 53000
KSAN 121351Z 10003KT 10SM CLR 12/M09 A3018 RMK AO2 SLP220 T01171089
KSAN 121251Z 00000KT 10SM CLR 12/M08 A3018 RMK AO2 SLP219 T01171078
KSAN 121151Z 36004KT 10SM CLR 13/M08 A3018 RMK AO2 SLP221 T01281083 10167 20111 58004
KSAN 121051Z 00000KT 10SM CLR 12/M08 A3020 RMK AO2 SLP224 T01221078
KSAN 120951Z 00000KT 10SM CLR 12/M06 A3020 RMK AO2 SLP225 T01221056
KSAN 120851Z 00000KT 10SM CLR 13/M06 A3020 RMK AO2 SLP224 T01331056 55000
KSAN 120751Z 00000KT 10SM CLR 13/M04 A3019 RMK AO2 SLP224 T01331039 402670122
KSAN 120651Z 33003KT 10SM CLR 14/M05 A3019 RMK AO2 SLP224 T01441050
KSAN 120551Z 00000KT 10SM FEW250 16/M05 A3020 RMK AO2 SLP224 T01561050 10233 20156 53005
KSAN 120451Z 01003KT 10SM FEW250 17/M04 A3018 RMK AO2 SLP220 T01671039
KSAN 120351Z 00000KT 10SM FEW250 19/M01 A3018 RMK AO2 SLP218 T01891006
KSAN 120251Z 00000KT 10SM FEW250 19/M01 A3018 RMK AO2 SLP220 T01891011 51012
KSAN 120151Z VRB03KT 10SM SCT250 21/01 A3017 RMK AO2 SLP216 T02060006
KSAN 120051Z 31004KT 10SM SCT250 20/09 A3016 RMK AO2 SLP214 T02000089
KSAN 112351Z 31006KT 10SM SCT250 23/04 A3015 RMK AO2 SLP208 T02330039 10267 20233 55003
KSAN 112251Z 30007KT 10SM FEW010 FEW200 SCT250 26/M06 A3014 RMK AO2 SLP206 FU FEW010 T02611061
KSAN 112156Z 31008KT 10SM FEW004 FEW200 SCT250 26/M09 A3015 RMK AO2 FU FEW004 T02611094
KSAN 112151Z 30010KT 10SM FEW200 SCT250 26/M10 A3015 RMK AO2 SLP208 T02611100
KSAN 112051Z 31010KT 10SM FEW200 SCT250 26/M08 A3016 RMK AO2 SLP212 T02561083 58022
KSAN 111951Z 30008KT 10SM FEW160 FEW200 SCT250 26/M04 A3018 RMK AO2 SLP218 T02561039
KSAN 111851Z 30005KT 10SM FEW160 FEW200 SCT250 24/M07 A3021 RMK AO2 SLP228 T02441072
KSAN 111751Z 00000KT 10SM FEW160 FEW200 SCT250 23/M09 A3022 RMK AO2 SLP233 T02281094 10233 20122 51014
KSAN 111651Z 35003KT 10SM FEW160 FEW200 SCT250 19/M04 A3021 RMK AO2 SLP230 T01941044
KSAN 111551Z 35003KT 10SM FEW200 SCT250 15/M04 A3020 RMK AO2 SLP224 T01501039
KSAN 111451Z 34003KT 10SM FEW160 SCT200 BKN250 13/M04 A3018 RMK AO2 SLP220 T01281044 53012
KSAN 111351Z 35003KT 10SM BKN250 12/M01 A3016 RMK AO2 SLP212 T01221006
KSAN 111251Z 01003KT 9SM BKN250 13/M01 A3015 RMK AO2 SLP209 T01331011
KSAN 111151Z 00000KT 10SM BKN250 13/M05 A3015 RMK AO2 SLP208 T01331050 10178 20133 55001
KSAN 111051Z 00000KT 10SM BKN250 15/M06 A3014 RMK AO2 SLP206 T01501061
KSAN 110951Z 36003KT 10SM BKN250 17/M08 A3015 RMK AO2 SLP209 T01721078
KSAN 110851Z 36003KT 10SM BKN250 17/M08 A3015 RMK AO2 SLP209 T01721078 58004
KSAN 110751Z 36004KT 10SM BKN250 17/M07 A3016 RMK AO2 SLP213 T01671067 402610117
KSAN 110651Z 00000KT 10SM BKN250 16/M03 A3017 RMK AO2 SLP216 T01611028
KSAN 110551Z 35003KT 10SM BKN250 16/M02 A3016 RMK AO2 SLP213 T01561017 10233 20156 51009
KSAN 110451Z 00000KT 10SM BKN250 17/M03 A3015 RMK AO2 SLP210 T01671033